sensor_id;sensor_type;location;lat;lon;timestamp;pressure;altitude;pressure_sealevel;temperature;humidity
15195;BME280;7698;42.478;23.756;2023-04-16T00:01:57;92845.75;;;8.41;100.00
15195;BME280;7698;42.478;23.756;2023-04-16T00:04:24;92835.81;;;8.36;100.00
15195;BME280;7698;42.478;23.756;2023-04-16T00:06:51;92836.47;;;8.32;100.00
15195;BME280;7698;42.478;23.756;2023-04-16T00:09:19;92839.38;;;8.30;100.00
15195;BME280;7698;42.478;23.756;2023-04-16T00:11:46;92837.44;;;8.26;100.00
15195;BME280;7698;42.478;23.756;2023-04-16T00:14:12;92838.22;;;8.26;100.00
15195;BME280;7698;42.478;23.756;2023-04-16T00:16:39;92841.13;;;8.25;100.00
15195;BME280;7698;42.478;23.756;2023-04-16T00:19:06;92849.03;;;8.20;100.00
15195;BME280;7698;42.478;23.756;2023-04-16T00:21:33;92846.09;;;8.21;100.00
15195;BME280;7698;42.478;23.756;2023-04-16T00:23:59;92849.09;;;8.25;100.00
15195;BME280;7698;42.478;23.756;2023-04-16T00:26:28;92851.53;;;8.26;100.00
15195;BME280;7698;42.478;23.756;2023-04-16T00:28:54;92847.25;;;8.25;100.00
15195;BME280;7698;42.478;23.756;2023-04-16T00:31:26;92838.06;;;8.16;100.00
15195;BME280;7698;42.478;23.756;2023-04-16T00:33:53;92837.50;;;8.02;100.00
15195;BME280;7698;42.478;23.756;2023-04-16T00:36:20;92840.50;;;7.94;100.00
15195;BME280;7698;42.478;23.756;2023-04-16T00:38:47;92836.97;;;7.89;100.00
15195;BME280;7698;42.478;23.756;2023-04-16T00:41:13;92833.28;;;7.90;100.00
15195;BME280;7698;42.478;23.756;2023-04-16T00:43:42;92837.63;;;7.96;100.00
15195;BME280;7698;42.478;23.756;2023-04-16T00:46:09;92835.88;;;8.01;100.00
15195;BME280;7698;42.478;23.756;2023-04-16T00:48:37;92839.94;;;8.04;100.00
15195;BME280;7698;42.478;23.756;2023-04-16T00:51:06;92836.81;;;8.07;100.00
15195;BME280;7698;42.478;23.756;2023-04-16T00:53:33;92840.94;;;8.14;100.00
15195;BME280;7698;42.478;23.756;2023-04-16T00:56:01;92842.41;;;8.22;100.00
15195;BME280;7698;42.478;23.756;2023-04-16T00:58:28;92841.47;;;8.28;100.00
15195;BME280;7698;42.478;23.756;2023-04-16T01:00:57;92842.28;;;8.29;100.00
15195;BME280;7698;42.478;23.756;2023-04-16T01:03:29;92841.00;;;8.31;100.00
15195;BME280;7698;42.478;23.756;2023-04-16T01:06:00;92837.09;;;8.34;100.00
15195;BME280;7698;42.478;23.756;2023-04-16T01:08:26;92844.13;;;8.40;100.00
15195;BME280;7698;42.478;23.756;2023-04-16T01:10:53;92842.63;;;8.44;100.00
15195;BME280;7698;42.478;23.756;2023-04-16T01:13:20;92837.63;;;8.47;100.00
15195;BME280;7698;42.478;23.756;2023-04-16T01:15:47;92839.31;;;8.54;100.00
15195;BME280;7698;42.478;23.756;2023-04-16T01:18:16;92837.78;;;8.58;100.00
15195;BME280;7698;42.478;23.756;2023-04-16T01:20:44;92838.59;;;8.58;100.00
15195;BME280;7698;42.478;23.756;2023-04-16T01:23:11;92839.31;;;8.54;100.00
15195;BME280;7698;42.478;23.756;2023-04-16T01:25:38;92833.75;;;8.55;100.00
15195;BME280;7698;42.478;23.756;2023-04-16T01:28:05;92839.31;;;8.54;100.00
15195;BME280;7698;42.478;23.756;2023-04-16T01:30:32;92845.69;;;8.53;100.00
15195;BME280;7698;42.478;23.756;2023-04-16T01:32:59;92846.16;;;8.49;100.00
15195;BME280;7698;42.478;23.756;2023-04-16T01:35:26;92837.53;;;8.42;100.00
15195;BME280;7698;42.478;23.756;2023-04-16T01:37:54;92837.91;;;8.34;100.00
15195;BME280;7698;42.478;23.756;2023-04-16T01:40:21;92835.34;;;8.28;100.00
15195;BME280;7698;42.478;23.756;2023-04-16T01:42:47;92836.03;;;8.23;100.00
15195;BME280;7698;42.478;23.756;2023-04-16T01:45:15;92831.22;;;8.20;100.00
15195;BME280;7698;42.478;23.756;2023-04-16T01:47:42;92835.72;;;8.20;100.00
15195;BME280;7698;42.478;23.756;2023-04-16T01:50:09;92830.81;;;8.28;100.00
15195;BME280;7698;42.478;23.756;2023-04-16T01:52:36;92826.22;;;8.35;100.00
15195;BME280;7698;42.478;23.756;2023-04-16T01:55:05;92825.97;;;8.37;100.00
15195;BME280;7698;42.478;23.756;2023-04-16T01:57:32;92821.00;;;8.40;100.00
15195;BME280;7698;42.478;23.756;2023-04-16T01:59:59;92822.38;;;8.43;100.00
15195;BME280;7698;42.478;23.756;2023-04-16T02:02:26;92825.38;;;8.46;100.00
15195;BME280;7698;42.478;23.756;2023-04-16T02:04:54;92823.00;;;8.50;100.00
15195;BME280;7698;42.478;23.756;2023-04-16T02:07:21;92821.72;;;8.53;100.00
15195;BME280;7698;42.478;23.756;2023-04-16T02:09:48;92827.06;;;8.53;100.00
15195;BME280;7698;42.478;23.756;2023-04-16T02:12:17;92823.59;;;8.52;100.00
15195;BME280;7698;42.478;23.756;2023-04-16T02:14:44;92828.03;;;8.46;100.00
15195;BME280;7698;42.478;23.756;2023-04-16T02:17:10;92830.59;;;8.41;100.00
15195;BME280;7698;42.478;23.756;2023-04-16T02:19:37;92824.13;;;8.37;100.00
15195;BME280;7698;42.478;23.756;2023-04-16T02:22:04;92828.88;;;8.35;100.00
15195;BME280;7698;42.478;23.756;2023-04-16T02:24:31;92824.84;;;8.33;100.00
15195;BME280;7698;42.478;23.756;2023-04-16T02:26:58;92815.69;;;8.29;100.00
15195;BME280;7698;42.478;23.756;2023-04-16T02:29:27;92819.63;;;8.26;100.00
15195;BME280;7698;42.478;23.756;2023-04-16T02:31:54;92817.94;;;8.20;100.00
15195;BME280;7698;42.478;23.756;2023-04-16T02:34:20;92816.53;;;8.18;100.00
15195;BME280;7698;42.478;23.756;2023-04-16T02:36:47;92810.66;;;8.15;100.00
15195;BME280;7698;42.478;23.756;2023-04-16T02:39:14;92809.84;;;8.15;100.00
15195;BME280;7698;42.478;23.756;2023-04-16T02:41:41;92810.41;;;8.17;100.00
15195;BME280;7698;42.478;23.756;2023-04-16T02:44:07;92806.84;;;8.11;100.00
15195;BME280;7698;42.478;23.756;2023-04-16T02:46:36;92806.75;;;8.06;100.00
15195;BME280;7698;42.478;23.756;2023-04-16T02:49:02;92806.88;;;8.00;100.00
15195;BME280;7698;42.478;23.756;2023-04-16T02:51:29;92806.06;;;7.99;100.00
15195;BME280;7698;42.478;23.756;2023-04-16T02:53:57;92803.56;;;7.93;100.00
15195;BME280;7698;42.478;23.756;2023-04-16T02:56:24;92807.16;;;7.87;100.00
15195;BME280;7698;42.478;23.756;2023-04-16T02:58:51;92804.97;;;7.84;100.00
15195;BME280;7698;42.478;23.756;2023-04-16T03:01:17;92804.84;;;7.78;100.00
15195;BME280;7698;42.478;23.756;2023-04-16T03:03:46;92808.09;;;7.69;100.00
15195;BME280;7698;42.478;23.756;2023-04-16T03:06:12;92805.59;;;7.62;100.00
15195;BME280;7698;42.478;23.756;2023-04-16T03:08:39;92804.91;;;7.55;100.00
15195;BME280;7698;42.478;23.756;2023-04-16T03:11:06;92802.94;;;7.51;100.00
15195;BME280;7698;42.478;23.756;2023-04-16T03:13:33;92803.06;;;7.44;100.00
15195;BME280;7698;42.478;23.756;2023-04-16T03:16:00;92796.59;;;7.40;100.00
15195;BME280;7698;42.478;23.756;2023-04-16T03:18:27;92803.22;;;7.37;100.00
15195;BME280;7698;42.478;23.756;2023-04-16T03:20:55;92817.16;;;7.33;100.00
15195;BME280;7698;42.478;23.756;2023-04-16T03:23:22;92808.75;;;7.24;100.00
15195;BME280;7698;42.478;23.756;2023-04-16T03:25:49;92812.41;;;7.11;100.00
15195;BME280;7698;42.478;23.756;2023-04-16T03:28:15;92814.94;;;6.95;100.00
15195;BME280;7698;42.478;23.756;2023-04-16T03:30:42;92817.13;;;6.86;100.00
15195;BME280;7698;42.478;23.756;2023-04-16T03:33:09;92818.16;;;6.85;100.00
15195;BME280;7698;42.478;23.756;2023-04-16T03:35:36;92822.22;;;6.88;100.00
15195;BME280;7698;42.478;23.756;2023-04-16T03:38:04;92819.31;;;6.89;100.00
15195;BME280;7698;42.478;23.756;2023-04-16T03:40:31;92822.56;;;6.91;100.00
15195;BME280;7698;42.478;23.756;2023-04-16T03:42:57;92824.06;;;6.87;100.00
15195;BME280;7698;42.478;23.756;2023-04-16T03:45:24;92824.19;;;6.81;100.00
15195;BME280;7698;42.478;23.756;2023-04-16T03:47:51;92825.09;;;6.74;100.00
15195;BME280;7698;42.478;23.756;2023-04-16T03:50:18;92823.56;;;6.67;100.00
15195;BME280;7698;42.478;23.756;2023-04-16T03:52:45;92816.63;;;6.66;100.00
15195;BME280;7698;42.478;23.756;2023-04-16T03:55:15;92826.44;;;6.65;100.00
15195;BME280;7698;42.478;23.756;2023-04-16T03:57:42;92824.16;;;6.69;100.00
15195;BME280;7698;42.478;23.756;2023-04-16T04:00:09;92825.91;;;6.75;100.00
15195;BME280;7698;42.478;23.756;2023-04-16T04:02:36;92830.53;;;6.79;100.00
15195;BME280;7698;42.478;23.756;2023-04-16T04:05:03;92835.84;;;6.79;100.00
15195;BME280;7698;42.478;23.756;2023-04-16T04:07:30;92832.25;;;6.86;100.00
15195;BME280;7698;42.478;23.756;2023-04-16T04:09:57;92843.22;;;6.89;100.00
15195;BME280;7698;42.478;23.756;2023-04-16T04:12:25;92844.50;;;6.98;100.00
15195;BME280;7698;42.478;23.756;2023-04-16T04:14:52;92847.88;;;7.05;100.00
15195;BME280;7698;42.478;23.756;2023-04-16T04:17:19;92852.59;;;7.15;100.00
15195;BME280;7698;42.478;23.756;2023-04-16T04:19:46;92852.84;;;7.25;100.00
15195;BME280;7698;42.478;23.756;2023-04-16T04:22:12;92855.75;;;7.35;100.00
15195;BME280;7698;42.478;23.756;2023-04-16T04:24:39;92856.75;;;7.46;100.00
15195;BME280;7698;42.478;23.756;2023-04-16T04:27:06;92859.44;;;7.58;100.00
15195;BME280;7698;42.478;23.756;2023-04-16T04:29:34;92858.28;;;7.65;100.00
15195;BME280;7698;42.478;23.756;2023-04-16T04:32:01;92859.28;;;7.76;100.00
15195;BME280;7698;42.478;23.756;2023-04-16T04:34:28;92857.31;;;7.83;100.00
15195;BME280;7698;42.478;23.756;2023-04-16T04:36:55;92853.56;;;7.96;100.00
15195;BME280;7698;42.478;23.756;2023-04-16T04:39:22;92850.66;;;8.09;100.00
15195;BME280;7698;42.478;23.756;2023-04-16T04:41:49;92848.22;;;8.19;100.00
15195;BME280;7698;42.478;23.756;2023-04-16T04:44:15;92861.69;;;8.29;100.00
15195;BME280;7698;42.478;23.756;2023-04-16T04:46:43;92854.91;;;8.33;100.00
15195;BME280;7698;42.478;23.756;2023-04-16T04:49:10;92854.78;;;8.40;100.00
15195;BME280;7698;42.478;23.756;2023-04-16T04:51:37;92857.28;;;8.46;100.00
15195;BME280;7698;42.478;23.756;2023-04-16T04:54:04;92866.50;;;8.56;100.00
15195;BME280;7698;42.478;23.756;2023-04-16T04:56:30;92862.41;;;8.65;100.00
15195;BME280;7698;42.478;23.756;2023-04-16T04:58:57;92865.97;;;8.70;100.00
15195;BME280;7698;42.478;23.756;2023-04-16T05:01:24;92864.69;;;8.73;100.00
15195;BME280;7698;42.478;23.756;2023-04-16T05:03:52;92861.06;;;8.79;100.00
15195;BME280;7698;42.478;23.756;2023-04-16T05:06:19;92864.38;;;8.86;100.00
15195;BME280;7698;42.478;23.756;2023-04-16T05:08:46;92863.44;;;8.92;100.00
15195;BME280;7698;42.478;23.756;2023-04-16T05:11:13;92859.25;;;8.96;100.00
15195;BME280;7698;42.478;23.756;2023-04-16T05:13:40;92859.97;;;8.92;100.00
15195;BME280;7698;42.478;23.756;2023-04-16T05:16:07;92857.78;;;8.89;100.00
15195;BME280;7698;42.478;23.756;2023-04-16T05:18:34;92855.78;;;8.96;100.00
15195;BME280;7698;42.478;23.756;2023-04-16T05:21:02;92862.16;;;9.11;100.00
15195;BME280;7698;42.478;23.756;2023-04-16T05:23:29;92861.66;;;9.31;100.00
15195;BME280;7698;42.478;23.756;2023-04-16T05:25:56;92861.69;;;9.48;100.00
15195;BME280;7698;42.478;23.756;2023-04-16T05:28:23;92857.94;;;9.66;100.00
15195;BME280;7698;42.478;23.756;2023-04-16T05:30:50;92861.16;;;9.84;100.00
15195;BME280;7698;42.478;23.756;2023-04-16T05:33:16;92856.41;;;10.08;100.00
15195;BME280;7698;42.478;23.756;2023-04-16T05:35:43;92855.72;;;10.40;100.00
15195;BME280;7698;42.478;23.756;2023-04-16T05:38:11;92859.19;;;10.62;100.00
15195;BME280;7698;42.478;23.756;2023-04-16T05:40:38;92857.91;;;10.70;100.00
15195;BME280;7698;42.478;23.756;2023-04-16T05:43:05;92858.03;;;10.80;100.00
15195;BME280;7698;42.478;23.756;2023-04-16T05:45:32;92851.50;;;10.93;98.72
15195;BME280;7698;42.478;23.756;2023-04-16T05:48:04;92852.88;;;11.27;99.03
15195;BME280;7698;42.478;23.756;2023-04-16T05:50:31;92865.72;;;11.62;94.76
15195;BME280;7698;42.478;23.756;2023-04-16T05:52:58;92859.28;;;11.95;89.09
15195;BME280;7698;42.478;23.756;2023-04-16T05:55:26;92864.81;;;12.26;87.93
15195;BME280;7698;42.478;23.756;2023-04-16T05:57:53;92862.00;;;12.58;85.20
15195;BME280;7698;42.478;23.756;2023-04-16T06:00:20;92860.97;;;12.74;80.63
15195;BME280;7698;42.478;23.756;2023-04-16T06:02:47;92858.84;;;12.76;76.90
15195;BME280;7698;42.478;23.756;2023-04-16T06:05:14;92859.38;;;12.78;75.97
15195;BME280;7698;42.478;23.756;2023-04-16T06:07:40;92856.69;;;12.78;74.44
15195;BME280;7698;42.478;23.756;2023-04-16T06:10:08;92850.81;;;12.81;71.88
15195;BME280;7698;42.478;23.756;2023-04-16T06:12:36;92852.94;;;12.89;71.11
15195;BME280;7698;42.478;23.756;2023-04-16T06:15:04;92852.44;;;12.97;68.37
15195;BME280;7698;42.478;23.756;2023-04-16T06:17:31;92859.97;;;13.00;66.54
15195;BME280;7698;42.478;23.756;2023-04-16T06:19:58;92855.09;;;12.87;65.13
15195;BME280;7698;42.478;23.756;2023-04-16T06:22:25;92853.72;;;12.69;65.47
15195;BME280;7698;42.478;23.756;2023-04-16T06:24:53;92855.38;;;12.80;66.80
15195;BME280;7698;42.478;23.756;2023-04-16T06:27:19;92858.88;;;12.96;67.11
15195;BME280;7698;42.478;23.756;2023-04-16T06:29:48;92856.50;;;13.05;65.35
15195;BME280;7698;42.478;23.756;2023-04-16T06:32:15;92864.25;;;13.06;65.52
15195;BME280;7698;42.478;23.756;2023-04-16T06:34:42;92855.97;;;13.08;65.81
15195;BME280;7698;42.478;23.756;2023-04-16T06:37:09;92865.94;;;13.28;66.31
15195;BME280;7698;42.478;23.756;2023-04-16T06:39:37;92857.88;;;13.28;63.75
15195;BME280;7698;42.478;23.756;2023-04-16T06:42:04;92862.72;;;13.36;64.11
15195;BME280;7698;42.478;23.756;2023-04-16T06:44:31;92859.53;;;13.39;63.87
15195;BME280;7698;42.478;23.756;2023-04-16T06:46:59;92865.63;;;13.19;60.79
15195;BME280;7698;42.478;23.756;2023-04-16T06:49:26;92860.53;;;13.17;62.54
15195;BME280;7698;42.478;23.756;2023-04-16T06:51:52;92866.94;;;13.06;63.65
15195;BME280;7698;42.478;23.756;2023-04-16T06:54:19;92866.38;;;12.99;63.21
15195;BME280;7698;42.478;23.756;2023-04-16T06:56:46;92867.97;;;12.90;63.76
15195;BME280;7698;42.478;23.756;2023-04-16T06:59:13;92868.03;;;13.10;64.58
15195;BME280;7698;42.478;23.756;2023-04-16T07:01:40;92858.94;;;13.21;65.49
15195;BME280;7698;42.478;23.756;2023-04-16T07:04:09;92870.22;;;13.34;64.41
15195;BME280;7698;42.478;23.756;2023-04-16T07:06:35;92866.66;;;13.13;63.34
15195;BME280;7698;42.478;23.756;2023-04-16T07:09:02;92861.59;;;13.11;64.71
15195;BME280;7698;42.478;23.756;2023-04-16T07:11:29;92866.69;;;13.08;64.97
15195;BME280;7698;42.478;23.756;2023-04-16T07:13:56;92872.84;;;13.08;64.86
15195;BME280;7698;42.478;23.756;2023-04-16T07:16:23;92862.16;;;13.24;65.39
15195;BME280;7698;42.478;23.756;2023-04-16T07:18:51;92865.69;;;13.34;64.39
15195;BME280;7698;42.478;23.756;2023-04-16T07:21:19;92866.22;;;13.36;63.46
15195;BME280;7698;42.478;23.756;2023-04-16T07:23:46;92862.72;;;13.46;65.01
15195;BME280;7698;42.478;23.756;2023-04-16T07:26:13;92862.97;;;13.75;63.64
15195;BME280;7698;42.478;23.756;2023-04-16T07:28:40;92862.72;;;13.86;62.91
15195;BME280;7698;42.478;23.756;2023-04-16T07:31:07;92857.31;;;14.12;63.29
15195;BME280;7698;42.478;23.756;2023-04-16T07:33:34;92855.03;;;14.54;62.37
15195;BME280;7698;42.478;23.756;2023-04-16T07:36:00;92855.91;;;15.04;60.36
15195;BME280;7698;42.478;23.756;2023-04-16T07:38:29;92852.13;;;15.44;56.94
15195;BME280;7698;42.478;23.756;2023-04-16T07:40:56;92858.53;;;15.87;55.94
15195;BME280;7698;42.478;23.756;2023-04-16T07:43:23;92853.78;;;16.37;53.99
15195;BME280;7698;42.478;23.756;2023-04-16T07:45:49;92855.59;;;16.89;52.87
15195;BME280;7698;42.478;23.756;2023-04-16T07:48:16;92845.28;;;17.15;51.07
15195;BME280;7698;42.478;23.756;2023-04-16T07:50:43;92849.72;;;17.25;51.12
15195;BME280;7698;42.478;23.756;2023-04-16T07:53:10;92846.97;;;17.11;50.88
15195;BME280;7698;42.478;23.756;2023-04-16T07:55:38;92842.16;;;17.65;52.18
15195;BME280;7698;42.478;23.756;2023-04-16T07:58:05;92846.13;;;18.18;48.10
15195;BME280;7698;42.478;23.756;2023-04-16T08:00:34;92831.75;;;18.50;48.14
15195;BME280;7698;42.478;23.756;2023-04-16T08:03:01;92835.47;;;18.68;46.25
15195;BME280;7698;42.478;23.756;2023-04-16T08:05:28;92827.94;;;19.06;45.37
15195;BME280;7698;42.478;23.756;2023-04-16T08:07:55;92832.31;;;19.30;45.09
15195;BME280;7698;42.478;23.756;2023-04-16T08:10:22;92833.50;;;19.96;46.41
15195;BME280;7698;42.478;23.756;2023-04-16T08:12:50;92833.34;;;20.45;43.15
15195;BME280;7698;42.478;23.756;2023-04-16T08:15:17;92836.53;;;20.25;42.91
15195;BME280;7698;42.478;23.756;2023-04-16T08:17:44;92840.59;;;19.83;43.46
15195;BME280;7698;42.478;23.756;2023-04-16T08:20:11;92829.38;;;19.40;43.75
15195;BME280;7698;42.478;23.756;2023-04-16T08:22:38;92828.38;;;18.86;44.58
15195;BME280;7698;42.478;23.756;2023-04-16T08:25:06;92824.81;;;19.49;44.27
15195;BME280;7698;42.478;23.756;2023-04-16T08:27:33;92827.34;;;19.09;42.97
15195;BME280;7698;42.478;23.756;2023-04-16T08:30:01;92832.16;;;19.12;45.20
15195;BME280;7698;42.478;23.756;2023-04-16T08:32:28;92834.34;;;19.10;43.35
15195;BME280;7698;42.478;23.756;2023-04-16T08:34:56;92825.56;;;18.77;44.34
15195;BME280;7698;42.478;23.756;2023-04-16T08:37:24;92834.72;;;19.17;45.17
15195;BME280;7698;42.478;23.756;2023-04-16T08:39:51;92826.03;;;19.43;45.06
15195;BME280;7698;42.478;23.756;2023-04-16T08:42:22;92827.72;;;19.66;43.63
15195;BME280;7698;42.478;23.756;2023-04-16T08:44:52;92822.16;;;19.71;42.94
15195;BME280;7698;42.478;23.756;2023-04-16T10:24:57;92783.34;;;20.07;40.76
15195;BME280;7698;42.478;23.756;2023-04-16T10:27:25;92779.38;;;19.82;41.23
15195;BME280;7698;42.478;23.756;2023-04-16T10:29:53;92782.28;;;19.27;41.74
15195;BME280;7698;42.478;23.756;2023-04-16T10:32:21;92779.00;;;19.16;42.41
15195;BME280;7698;42.478;23.756;2023-04-16T10:34:53;92775.38;;;19.57;41.60
15195;BME280;7698;42.478;23.756;2023-04-16T10:37:28;92769.78;;;20.07;41.01
15195;BME280;7698;42.478;23.756;2023-04-16T10:39:58;92789.66;;;20.47;41.37
15195;BME280;7698;42.478;23.756;2023-04-16T10:42:25;92772.28;;;20.25;40.43
15195;BME280;7698;42.478;23.756;2023-04-16T10:44:52;92781.50;;;20.24;40.12
15195;BME280;7698;42.478;23.756;2023-04-16T10:47:23;92775.97;;;19.99;40.52
15195;BME280;7698;42.478;23.756;2023-04-16T10:49:50;92778.69;;;19.54;41.55
15195;BME280;7698;42.478;23.756;2023-04-16T10:52:17;92780.69;;;19.48;42.00
15195;BME280;7698;42.478;23.756;2023-04-16T10:54:46;92783.25;;;19.89;41.29
15195;BME280;7698;42.478;23.756;2023-04-16T10:57:16;92785.69;;;20.22;40.55
15195;BME280;7698;42.478;23.756;2023-04-16T10:59:44;92774.44;;;20.37;40.09
15195;BME280;7698;42.478;23.756;2023-04-16T11:02:13;92765.59;;;20.23;39.50
15195;BME280;7698;42.478;23.756;2023-04-16T11:04:42;92775.56;;;20.14;41.30
15195;BME280;7698;42.478;23.756;2023-04-16T11:07:16;92774.31;;;20.42;40.54
15195;BME280;7698;42.478;23.756;2023-04-16T11:10:02;92768.00;;;20.64;39.09
15195;BME280;7698;42.478;23.756;2023-04-16T11:12:34;92766.59;;;20.36;39.72
15195;BME280;7698;42.478;23.756;2023-04-16T11:15:03;92767.38;;;19.97;40.14
15195;BME280;7698;42.478;23.756;2023-04-16T11:17:31;92775.75;;;19.86;39.75
15195;BME280;7698;42.478;23.756;2023-04-16T11:19:59;92768.78;;;19.94;40.75
15195;BME280;7698;42.478;23.756;2023-04-16T11:22:26;92761.97;;;20.05;40.17
15195;BME280;7698;42.478;23.756;2023-04-16T11:24:54;92747.31;;;20.37;40.18
15195;BME280;7698;42.478;23.756;2023-04-16T11:27:21;92749.72;;;20.08;40.51
15195;BME280;7698;42.478;23.756;2023-04-16T11:29:57;92757.28;;;20.19;40.63
15195;BME280;7698;42.478;23.756;2023-04-16T11:32:24;92750.25;;;20.49;38.92
15195;BME280;7698;42.478;23.756;2023-04-16T11:34:51;92751.19;;;20.45;40.52
15195;BME280;7698;42.478;23.756;2023-04-16T11:37:19;92744.66;;;20.54;41.18
15195;BME280;7698;42.478;23.756;2023-04-16T11:39:49;92742.03;;;20.01;39.71
15195;BME280;7698;42.478;23.756;2023-04-16T11:42:20;92734.44;;;20.43;40.76
15195;BME280;7698;42.478;23.756;2023-04-16T11:44:54;92734.97;;;20.71;40.59
15195;BME280;7698;42.478;23.756;2023-04-16T11:47:23;92730.66;;;20.30;40.15
15195;BME280;7698;42.478;23.756;2023-04-16T11:49:50;92721.84;;;20.16;40.91
15195;BME280;7698;42.478;23.756;2023-04-16T11:52:27;92722.72;;;19.94;40.96
15195;BME280;7698;42.478;23.756;2023-04-16T11:54:55;92723.69;;;19.67;41.33
15195;BME280;7698;42.478;23.756;2023-04-16T11:57:26;92713.72;;;18.59;42.23
15195;BME280;7698;42.478;23.756;2023-04-16T11:59:54;92708.50;;;18.22;43.25
15195;BME280;7698;42.478;23.756;2023-04-16T12:02:35;92708.41;;;18.27;46.67
15195;BME280;7698;42.478;23.756;2023-04-16T12:05:02;92710.63;;;18.25;44.73
15195;BME280;7698;42.478;23.756;2023-04-16T12:07:29;92713.38;;;18.47;45.72
15195;BME280;7698;42.478;23.756;2023-04-16T12:10:06;92703.97;;;18.45;46.13
15195;BME280;7698;42.478;23.756;2023-04-16T12:12:34;92703.69;;;18.46;43.30
15195;BME280;7698;42.478;23.756;2023-04-16T12:15:02;92705.41;;;18.92;45.12
15195;BME280;7698;42.478;23.756;2023-04-16T12:17:30;92705.66;;;18.82;43.61
15195;BME280;7698;42.478;23.756;2023-04-16T12:20:00;92691.38;;;18.40;43.84
15195;BME280;7698;42.478;23.756;2023-04-16T12:22:29;92695.09;;;18.17;44.86
15195;BME280;7698;42.478;23.756;2023-04-16T12:25:00;92691.38;;;18.40;45.63
15195;BME280;7698;42.478;23.756;2023-04-16T12:27:42;92691.34;;;18.68;45.68
15195;BME280;7698;42.478;23.756;2023-04-16T12:30:11;92687.94;;;18.76;45.34
15195;BME280;7698;42.478;23.756;2023-04-16T12:32:39;92686.56;;;18.37;46.42
15195;BME280;7698;42.478;23.756;2023-04-16T12:35:08;92693.28;;;18.26;45.52
15195;BME280;7698;42.478;23.756;2023-04-16T12:37:36;92681.47;;;18.08;47.55
15195;BME280;7698;42.478;23.756;2023-04-16T12:40:04;92679.19;;;17.88;48.66
15195;BME280;7698;42.478;23.756;2023-04-16T12:42:51;92685.31;;;17.61;48.50
15195;BME280;7698;42.478;23.756;2023-04-16T12:45:18;92675.03;;;17.49;47.70
15195;BME280;7698;42.478;23.756;2023-04-16T12:47:45;92678.78;;;17.35;48.55
15195;BME280;7698;42.478;23.756;2023-04-16T12:50:13;92672.78;;;17.70;48.10
15195;BME280;7698;42.478;23.756;2023-04-16T12:52:40;92679.88;;;17.80;46.97
15195;BME280;7698;42.478;23.756;2023-04-16T12:55:08;92667.13;;;18.49;46.27
15195;BME280;7698;42.478;23.756;2023-04-16T12:57:35;92671.72;;;18.98;46.40
15195;BME280;7698;42.478;23.756;2023-04-16T13:00:02;92694.94;;;19.35;43.68
15195;BME280;7698;42.478;23.756;2023-04-16T13:02:30;92676.97;;;19.39;44.53
15195;BME280;7698;42.478;23.756;2023-04-16T13:04:58;92683.47;;;19.16;43.16
15195;BME280;7698;42.478;23.756;2023-04-16T13:07:26;92678.31;;;18.70;42.40
15195;BME280;7698;42.478;23.756;2023-04-16T13:09:56;92677.94;;;18.63;43.46
15195;BME280;7698;42.478;23.756;2023-04-16T13:12:23;92676.03;;;18.49;43.73
15195;BME280;7698;42.478;23.756;2023-04-16T13:14:49;92667.56;;;18.29;45.04
15195;BME280;7698;42.478;23.756;2023-04-16T13:17:16;92671.75;;;18.35;44.13
15195;BME280;7698;42.478;23.756;2023-04-16T13:19:43;92667.97;;;18.08;45.51
15195;BME280;7698;42.478;23.756;2023-04-16T13:22:10;92668.25;;;18.07;45.18
15195;BME280;7698;42.478;23.756;2023-04-16T13:24:39;92662.19;;;18.01;44.51
15195;BME280;7698;42.478;23.756;2023-04-16T13:27:06;92669.19;;;17.75;46.24
15195;BME280;7698;42.478;23.756;2023-04-16T13:29:33;92664.47;;;17.80;46.21
15195;BME280;7698;42.478;23.756;2023-04-16T13:32:01;92665.03;;;17.50;47.39
15195;BME280;7698;42.478;23.756;2023-04-16T13:34:29;92664.53;;;17.15;47.63
15195;BME280;7698;42.478;23.756;2023-04-16T13:36:56;92659.44;;;17.14;47.28
15195;BME280;7698;42.478;23.756;2023-04-16T13:39:23;92659.88;;;17.02;47.82
15195;BME280;7698;42.478;23.756;2023-04-16T13:41:52;92657.19;;;17.02;47.82
15195;BME280;7698;42.478;23.756;2023-04-16T13:44:20;92643.00;;;16.59;48.96
15195;BME280;7698;42.478;23.756;2023-04-16T13:46:47;92642.97;;;16.64;49.33
15195;BME280;7698;42.478;23.756;2023-04-16T13:49:14;92638.13;;;16.80;49.23
15195;BME280;7698;42.478;23.756;2023-04-16T13:51:42;92619.41;;;16.88;49.54
15195;BME280;7698;42.478;23.756;2023-04-16T13:54:09;92629.91;;;16.71;50.07
15195;BME280;7698;42.478;23.756;2023-04-16T13:56:36;92633.75;;;16.84;50.56
15195;BME280;7698;42.478;23.756;2023-04-16T13:59:04;92634.88;;;16.97;50.33
15195;BME280;7698;42.478;23.756;2023-04-16T14:01:32;92635.09;;;16.68;49.85
15195;BME280;7698;42.478;23.756;2023-04-16T14:03:59;92645.94;;;16.81;49.98
15195;BME280;7698;42.478;23.756;2023-04-16T14:06:30;92649.72;;;16.80;50.62
15195;BME280;7698;42.478;23.756;2023-04-16T14:08:57;92656.00;;;16.76;50.16
15195;BME280;7698;42.478;23.756;2023-04-16T14:11:24;92655.69;;;16.77;51.32
15195;BME280;7698;42.478;23.756;2023-04-16T14:13:51;92658.69;;;16.76;50.10
15195;BME280;7698;42.478;23.756;2023-04-16T14:16:37;92645.94;;;16.63;50.92
15195;BME280;7698;42.478;23.756;2023-04-16T14:19:04;92647.47;;;16.69;50.28
15195;BME280;7698;42.478;23.756;2023-04-16T14:21:30;92634.78;;;16.50;51.22
15195;BME280;7698;42.478;23.756;2023-04-16T14:23:58;92632.94;;;16.46;51.32
15195;BME280;7698;42.478;23.756;2023-04-16T14:26:25;92635.50;;;16.56;51.08
15195;BME280;7698;42.478;23.756;2023-04-16T14:28:52;92635.09;;;16.68;51.00
15195;BME280;7698;42.478;23.756;2023-04-16T14:31:19;92635.00;;;16.54;51.68
15195;BME280;7698;42.478;23.756;2023-04-16T14:33:47;92651.22;;;16.49;51.88
15195;BME280;7698;42.478;23.756;2023-04-16T14:36:14;92656.69;;;16.44;52.40
15195;BME280;7698;42.478;23.756;2023-04-16T14:38:41;92650.59;;;16.38;52.72
15195;BME280;7698;42.478;23.756;2023-04-16T14:41:08;92654.00;;;16.25;52.70